Time;durP1;ratioP1;P1;durP2;ratioP2;P2;SDS_P1;SDS_P2;PMS_P1;PMS_P2;Temp;Humidity;BMP_temperature;BMP_pressure;BME280_temperature;BME280_humidity;BME280_pressure;Samples;Min_cycle;Max_cycle;Signal;HPM_P1;HPM_P2
2021/10/25 00:01:28;;;;;;;6.22;5.50;;;6.50;99.90;;;;;;5056095;28;20440;-69
2021/10/25 00:03:56;;;;;;;6.72;5.60;;;6.40;99.90;;;;;;5069745;28;20208;-70
2021/10/25 00:06:23;;;;;;;9.80;6.50;;;6.40;99.90;;;;;;5065378;28;20208;-69
2021/10/25 00:08:50;;;;;;;9.65;6.78;;;6.40;99.90;;;;;;5061590;28;20233;-71
2021/10/25 00:11:17;;;;;;;7.78;5.53;;;6.40;99.90;;;;;;5071595;28;20635;-69
2021/10/25 00:13:46;;;;;;;7.57;6.60;;;6.40;99.90;;;;;;5072109;28;20229;-69
2021/10/25 00:16:17;;;;;;;7.22;5.25;;;6.40;99.90;;;;;;5071324;28;20296;-69
2021/10/25 00:18:45;;;;;;;8.07;6.10;;;6.50;99.90;;;;;;5068578;28;20570;-69
2021/10/25 00:21:12;;;;;;;7.22;5.03;;;6.60;99.90;;;;;;5075908;28;20200;-69
2021/10/25 00:23:39;;;;;;;7.18;6.13;;;6.50;99.90;;;;;;5075408;28;20697;-69
2021/10/25 00:26:07;;;;;;;8.05;6.82;;;6.60;99.90;;;;;;5072576;28;20217;-69
2021/10/25 00:28:34;;;;;;;8.48;5.47;;;6.60;99.90;;;;;;5068713;28;20215;-70
2021/10/25 00:31:03;;;;;;;6.80;5.28;;;6.60;99.90;;;;;;5065008;28;20203;-69
2021/10/25 00:33:30;;;;;;;10.70;6.22;;;6.60;99.90;;;;;;5076019;28;20716;-69
2021/10/25 00:35:57;;;;;;;7.20;5.25;;;6.60;99.90;;;;;;5069463;28;20295;-69
2021/10/25 00:38:25;;;;;;;12.98;6.80;;;6.70;99.90;;;;;;5068025;28;20209;-69
2021/10/25 00:40:52;;;;;;;10.13;6.10;;;6.60;99.90;;;;;;5074829;28;20643;-68
2021/10/25 00:43:19;;;;;;;9.43;7.00;;;6.50;99.90;;;;;;5075349;28;20219;-68
2021/10/25 00:45:47;;;;;;;9.95;5.75;;;6.40;99.90;;;;;;5071273;28;20233;-70
2021/10/25 00:48:15;;;;;;;8.80;5.88;;;6.40;99.90;;;;;;5070779;28;20202;-68
2021/10/25 00:50:50;;;;;;;11.15;6.68;;;6.30;99.90;;;;;;5068238;28;20611;-68
2021/10/25 00:53:18;;;;;;;9.73;7.07;;;6.30;99.90;;;;;;5068387;28;20250;-68
2021/10/25 00:55:45;;;;;;;7.88;5.90;;;6.30;99.90;;;;;;5067182;28;20203;-68
2021/10/25 00:58:13;;;;;;;11.05;6.45;;;6.20;99.90;;;;;;5068589;28;20201;-69
2021/10/25 01:00:42;;;;;;;8.20;6.30;;;6.20;99.90;;;;;;5064599;28;20188;-68
2021/10/25 01:03:09;;;;;;;12.25;7.10;;;6.20;99.90;;;;;;5075783;28;20225;-68
2021/10/25 01:05:38;;;;;;;10.80;6.65;;;6.10;99.90;;;;;;5078814;28;20566;-68
2021/10/25 01:08:06;;;;;;;9.13;6.25;;;6.00;99.90;;;;;;5069996;28;20203;-68
2021/10/25 01:10:34;;;;;;;11.32;6.78;;;6.00;99.90;;;;;;5072493;28;20424;-68
2021/10/25 01:13:01;;;;;;;7.00;5.97;;;6.00;99.90;;;;;;5071765;28;20220;-68
2021/10/25 01:15:29;;;;;;;8.80;5.85;;;6.10;99.90;;;;;;5060851;28;20204;-68
2021/10/25 01:17:57;;;;;;;8.27;5.95;;;6.20;99.90;;;;;;5061544;28;20205;-68
2021/10/25 01:20:27;;;;;;;11.57;5.43;;;6.30;99.90;;;;;;5064216;28;20204;-68
2021/10/25 01:22:55;;;;;;;7.88;6.22;;;6.30;99.90;;;;;;5056157;28;20225;-68
2021/10/25 01:25:23;;;;;;;6.63;5.80;;;6.30;99.90;;;;;;5066037;28;20204;-68
2021/10/25 01:27:51;;;;;;;7.47;6.10;;;6.20;99.90;;;;;;5066515;28;20218;-70
2021/10/25 01:30:18;;;;;;;5.78;4.82;;;6.30;99.90;;;;;;5062950;28;20568;-68
2021/10/25 01:32:47;;;;;;;7.15;5.85;;;6.30;99.90;;;;;;5063372;28;20224;-69
2021/10/25 01:35:15;;;;;;;9.82;6.10;;;6.30;99.90;;;;;;5061561;28;20215;-68
2021/10/25 01:37:44;;;;;;;9.52;6.53;;;6.20;99.90;;;;;;5065637;28;20251;-68
2021/10/25 01:40:12;;;;;;;10.13;6.30;;;6.10;99.90;;;;;;5070625;28;20215;-68
2021/10/25 01:42:40;;;;;;;6.90;6.20;;;6.00;99.90;;;;;;5067032;28;20589;-67
2021/10/25 01:45:09;;;;;;;6.82;6.10;;;6.00;99.90;;;;;;5071759;28;20204;-67
2021/10/25 01:47:36;;;;;;;10.80;7.97;;;5.90;99.90;;;;;;5067705;28;20204;-68
2021/10/25 01:50:05;;;;;;;10.82;6.72;;;5.90;99.90;;;;;;5075749;28;20220;-68
2021/10/25 01:52:32;;;;;;;10.95;6.78;;;5.90;99.90;;;;;;5073398;28;20229;-68
2021/10/25 01:55:01;;;;;;;9.45;6.78;;;5.90;99.90;;;;;;5059186;28;20238;-69
2021/10/25 01:57:28;;;;;;;11.15;6.80;;;5.90;99.90;;;;;;5070152;28;20220;-68
2021/10/25 01:59:55;;;;;;;9.90;6.28;;;6.00;99.90;;;;;;5065491;28;20204;-68
2021/10/25 02:02:22;;;;;;;11.48;6.57;;;6.00;99.90;;;;;;5064209;28;20219;-68
2021/10/25 02:04:50;;;;;;;9.38;5.35;;;6.00;99.90;;;;;;5084097;28;20202;-68
2021/10/25 02:07:18;;;;;;;9.55;5.55;;;6.10;99.90;;;;;;5065060;28;20715;-68
2021/10/25 02:09:45;;;;;;;6.78;6.10;;;6.10;99.90;;;;;;5071004;28;20272;-68
2021/10/25 02:12:14;;;;;;;9.32;6.00;;;6.10;99.90;;;;;;5073741;28;20674;-68
2021/10/25 02:14:41;;;;;;;9.45;6.68;;;6.10;99.90;;;;;;5063603;28;20219;-68
2021/10/25 02:17:08;;;;;;;10.32;7.38;;;6.00;99.90;;;;;;5064752;28;20554;-68
2021/10/25 02:19:37;;;;;;;11.77;7.70;;;6.00;99.90;;;;;;5071904;28;20209;-68
2021/10/25 02:22:05;;;;;;;8.13;7.40;;;6.00;99.90;;;;;;5074321;28;20228;-68
2021/10/25 02:24:33;;;;;;;8.60;6.40;;;5.90;99.90;;;;;;5067667;28;20635;-68
2021/10/25 02:27:03;;;;;;;12.07;8.07;;;5.90;99.90;;;;;;5068629;28;20203;-68
2021/10/25 02:29:35;;;;;;;12.00;7.30;;;5.90;99.90;;;;;;5064159;28;20219;-68
2021/10/25 02:32:02;;;;;;;10.75;7.05;;;5.90;99.90;;;;;;5059641;28;20230;-69
2021/10/25 02:34:31;;;;;;;9.52;6.22;;;5.90;99.90;;;;;;5065004;28;20200;-69
2021/10/25 02:36:59;;;;;;;7.80;6.60;;;5.90;99.90;;;;;;5060940;28;20737;-69
2021/10/25 02:39:27;;;;;;;7.97;6.40;;;5.80;99.90;;;;;;5063796;28;20191;-69
2021/10/25 02:41:55;;;;;;;11.32;6.97;;;5.80;99.90;;;;;;5071997;28;20244;-68
2021/10/25 02:44:22;;;;;;;8.75;6.80;;;5.80;99.90;;;;;;5068908;28;20201;-69
2021/10/25 02:46:52;;;;;;;9.07;7.18;;;5.70;99.90;;;;;;5064345;28;20200;-69
2021/10/25 02:49:19;;;;;;;11.10;7.13;;;5.80;99.90;;;;;;5072658;28;20207;-68
2021/10/25 02:51:46;;;;;;;7.22;6.53;;;5.80;99.90;;;;;;5070330;28;20231;-69
2021/10/25 02:54:13;;;;;;;8.82;6.57;;;5.80;99.90;;;;;;5071143;28;20195;-68
2021/10/25 02:56:41;;;;;;;13.45;6.80;;;5.80;99.90;;;;;;5065199;28;20207;-68
2021/10/25 02:59:09;;;;;;;7.25;6.38;;;5.80;99.90;;;;;;5059586;28;20212;-69
2021/10/25 03:01:37;;;;;;;7.45;6.60;;;5.90;99.90;;;;;;5064304;28;20223;-69
2021/10/25 03:04:06;;;;;;;8.13;7.05;;;5.90;99.90;;;;;;5067299;28;20556;-69
2021/10/25 03:06:34;;;;;;;9.05;7.00;;;6.00;99.90;;;;;;5061772;28;20531;-69
2021/10/25 03:09:01;;;;;;;10.60;7.00;;;5.90;99.90;;;;;;5069360;28;20217;-68
2021/10/25 03:11:29;;;;;;;11.68;7.40;;;5.80;99.90;;;;;;5066454;28;20234;-69
2021/10/25 03:13:56;;;;;;;7.95;7.05;;;5.80;99.90;;;;;;5063562;28;20580;-68
2021/10/25 03:16:24;;;;;;;8.30;7.47;;;5.80;99.90;;;;;;5059171;28;20563;-68
2021/10/25 03:18:52;;;;;;;10.85;7.40;;;5.80;99.90;;;;;;5071068;28;20210;-68
2021/10/25 03:21:22;;;;;;;10.80;8.32;;;5.80;99.90;;;;;;5070311;28;20666;-69
2021/10/25 03:23:50;;;;;;;8.52;7.72;;;5.80;99.90;;;;;;5068692;28;20227;-68
2021/10/25 03:26:18;;;;;;;12.38;7.78;;;5.70;99.90;;;;;;5068065;28;20198;-68
2021/10/25 03:28:46;;;;;;;11.55;8.77;;;5.70;99.90;;;;;;5070874;28;20211;-69
2021/10/25 03:31:14;;;;;;;13.25;8.95;;;5.70;99.90;;;;;;5061110;28;20238;-68
2021/10/25 03:33:42;;;;;;;15.15;8.32;;;5.70;99.90;;;;;;5064169;28;20235;-69
2021/10/25 03:36:31;;;;;;;12.48;7.53;;;5.60;99.90;;;;;;5066531;28;20197;-69
2021/10/25 03:38:58;;;;;;;9.88;7.63;;;5.60;99.90;;;;;;5073120;28;20207;-69
2021/10/25 03:41:31;;;;;;;7.70;6.90;;;5.70;99.90;;;;;;5071948;28;20205;-69
2021/10/25 03:44:02;;;;;;;8.90;6.80;;;5.70;99.90;;;;;;5068424;28;20199;-69
2021/10/25 03:46:34;;;;;;;11.02;7.90;;;5.70;99.90;;;;;;5065674;28;20200;-68
2021/10/25 03:49:07;;;;;;;9.60;8.60;;;5.70;99.90;;;;;;5066701;28;20203;-68
2021/10/25 03:51:38;;;;;;;13.32;8.38;;;5.60;99.90;;;;;;5071313;28;20321;-69
2021/10/25 03:54:18;;;;;;;12.18;7.82;;;5.60;99.90;;;;;;5063949;28;20198;-68
2021/10/25 03:57:00;;;;;;;12.63;8.43;;;5.60;99.90;;;;;;5067944;28;20206;-68
2021/10/25 03:59:36;;;;;;;11.02;7.78;;;5.60;99.90;;;;;;5044476;28;20282;-69
2021/10/25 04:27:12;;;;;;;12.40;8.32;;;5.80;99.90;;;;;;5061639;28;20221;-68
2021/10/25 04:29:42;;;;;;;11.77;7.90;;;5.80;99.90;;;;;;5050340;28;20549;-69
2021/10/25 04:32:15;;;;;;;12.05;7.70;;;5.80;99.90;;;;;;5067161;28;20306;-69
2021/10/25 04:34:42;;;;;;;9.45;7.25;;;5.90;99.90;;;;;;5070505;28;20207;-68
2021/10/25 04:37:10;;;;;;;9.15;7.88;;;5.90;99.90;;;;;;5070820;28;20661;-69
2021/10/25 04:39:39;;;;;;;11.82;8.93;;;5.90;99.90;;;;;;5073792;28;20564;-69
2021/10/25 04:42:06;;;;;;;11.00;7.97;;;5.90;99.90;;;;;;5066252;28;20219;-69
2021/10/25 04:44:33;;;;;;;11.48;8.45;;;5.90;99.90;;;;;;5065808;28;20279;-69
2021/10/25 04:47:00;;;;;;;9.88;7.22;;;5.90;99.90;;;;;;5061274;28;20214;-69
2021/10/25 04:49:28;;;;;;;9.00;7.65;;;6.00;99.90;;;;;;5071015;28;20290;-69
2021/10/25 04:52:20;;;;;;;14.40;8.23;;;6.00;99.90;;;;;;5068232;28;20226;-69
2021/10/25 04:54:49;;;;;;;10.93;8.82;;;6.00;99.90;;;;;;5068702;28;20289;-69
2021/10/25 04:57:17;;;;;;;10.18;7.63;;;6.00;99.90;;;;;;5060218;28;20295;-69
2021/10/25 04:59:45;;;;;;;10.43;7.90;;;5.90;99.90;;;;;;5065653;28;20661;-69
2021/10/25 05:02:20;;;;;;;10.90;7.70;;;6.00;99.90;;;;;;5071970;28;20226;-69
2021/10/25 05:04:47;;;;;;;10.82;8.38;;;6.00;99.90;;;;;;5069674;28;20272;-69
2021/10/25 05:07:15;;;;;;;10.00;8.70;;;5.90;99.90;;;;;;5075530;28;20210;-69
2021/10/25 05:09:42;;;;;;;9.98;7.65;;;5.90;99.90;;;;;;5068726;28;20638;-69
2021/10/25 05:12:13;;;;;;;9.93;7.75;;;5.90;99.90;;;;;;5066954;28;20216;-68
2021/10/25 05:14:40;;;;;;;13.13;9.48;;;6.00;99.90;;;;;;5061543;28;20204;-69
2021/10/25 05:17:08;;;;;;;11.80;7.68;;;6.00;99.90;;;;;;5067922;28;20202;-70
2021/10/25 05:19:35;;;;;;;12.25;8.88;;;6.00;99.90;;;;;;5070580;28;20203;-70
2021/10/25 05:22:02;;;;;;;9.82;7.88;;;5.90;99.90;;;;;;5065643;28;20576;-68
2021/10/25 05:24:30;;;;;;;10.32;9.02;;;5.90;99.90;;;;;;5074334;28;20222;-70
2021/10/25 05:26:57;;;;;;;10.63;8.88;;;5.80;99.90;;;;;;5074038;28;20215;-70
2021/10/25 05:29:26;;;;;;;10.88;9.05;;;5.90;99.90;;;;;;5063423;28;20207;-68
2021/10/25 05:31:53;;;;;;;9.35;7.93;;;5.90;99.90;;;;;;5066751;28;20235;-69
2021/10/25 05:34:20;;;;;;;14.40;8.85;;;5.90;99.90;;;;;;5062432;28;20660;-70
2021/10/25 05:36:48;;;;;;;12.07;9.50;;;5.90;99.90;;;;;;5075847;28;20213;-70
2021/10/25 05:39:17;;;;;;;11.25;8.60;;;5.90;99.90;;;;;;5070766;28;20242;-68
2021/10/25 05:41:44;;;;;;;12.35;9.18;;;5.90;99.90;;;;;;5070672;28;20199;-72
2021/10/25 05:44:12;;;;;;;16.20;10.88;;;5.90;99.90;;;;;;5068134;28;20195;-70
2021/10/25 05:46:41;;;;;;;14.80;8.95;;;5.90;99.90;;;;;;5067213;28;20196;-71
2021/10/25 05:49:08;;;;;;;12.38;8.50;;;5.90;99.90;;;;;;5082589;28;20289;-70
2021/10/25 05:51:35;;;;;;;17.58;10.52;;;5.90;99.90;;;;;;5076065;28;20306;-70
2021/10/25 05:54:05;;;;;;;12.85;8.50;;;5.90;99.90;;;;;;5073190;28;20202;-71
2021/10/25 05:56:32;;;;;;;11.13;9.43;;;5.90;99.90;;;;;;5071475;28;20198;-70
2021/10/25 05:59:00;;;;;;;11.60;9.50;;;5.90;99.90;;;;;;5071182;28;20199;-71
2021/10/25 06:01:33;;;;;;;13.82;9.40;;;5.90;99.90;;;;;;5079121;28;20702;-72
2021/10/25 06:04:05;;;;;;;11.82;9.68;;;5.90;99.90;;;;;;5061799;28;20203;-70
2021/10/25 06:06:33;;;;;;;11.55;9.65;;;5.90;99.90;;;;;;5081726;28;20205;-68
2021/10/25 06:09:03;;;;;;;13.98;8.90;;;5.90;99.90;;;;;;5069539;28;20606;-69
2021/10/25 06:11:31;;;;;;;11.32;9.00;;;6.00;99.90;;;;;;5071877;28;20226;-68
2021/10/25 06:14:01;;;;;;;15.63;9.20;;;6.00;99.90;;;;;;5069948;28;20211;-69
2021/10/25 06:16:38;;;;;;;16.92;11.02;;;6.00;99.90;;;;;;5070050;28;20195;-69
2021/10/25 06:19:07;;;;;;;15.55;11.18;;;6.00;99.90;;;;;;5047066;28;20636;-67
2021/10/25 06:21:37;;;;;;;14.88;11.55;;;6.00;99.90;;;;;;5068110;28;20203;-68
2021/10/25 06:24:06;;;;;;;13.02;9.90;;;6.00;99.90;;;;;;5071551;28;20208;-69
2021/10/25 06:26:33;;;;;;;12.15;10.20;;;6.00;99.90;;;;;;5073884;28;20248;-68
2021/10/25 06:29:01;;;;;;;11.57;9.30;;;5.90;99.90;;;;;;5063505;28;20199;-68
2021/10/25 06:31:29;;;;;;;12.40;8.93;;;6.00;99.90;;;;;;5071248;28;20219;-68
2021/10/25 06:33:59;;;;;;;13.98;8.63;;;6.10;99.90;;;;;;5070336;28;20207;-69
2021/10/25 06:36:30;;;;;;;12.63;8.23;;;6.10;99.90;;;;;;5068302;28;20195;-68
2021/10/25 06:39:08;;;;;;;16.88;12.10;;;6.10;99.90;;;;;;5065589;28;20507;-69
2021/10/25 06:41:35;;;;;;;12.60;9.93;;;6.20;99.90;;;;;;5061206;28;20299;-68
2021/10/25 06:44:03;;;;;;;11.93;10.35;;;6.20;99.90;;;;;;5059656;28;20193;-69
2021/10/25 06:46:30;;;;;;;13.52;11.00;;;6.10;99.90;;;;;;5059261;28;20538;-69
2021/10/25 06:48:57;;;;;;;19.60;10.40;;;6.10;99.90;;;;;;5065834;28;20256;-68
2021/10/25 06:51:25;;;;;;;10.80;9.57;;;6.20;99.90;;;;;;5061926;28;20592;-68
2021/10/25 06:53:54;;;;;;;11.75;10.52;;;6.20;99.90;;;;;;5066771;28;20799;-67
2021/10/25 06:56:21;;;;;;;26.20;10.13;;;6.30;99.90;;;;;;5071843;28;20191;-68
2021/10/25 06:58:48;;;;;;;13.93;9.82;;;6.40;99.90;;;;;;5060715;28;20566;-70
2021/10/25 07:01:16;;;;;;;9.57;8.57;;;6.60;99.90;;;;;;5059925;28;20768;-69
2021/10/25 07:03:43;;;;;;;10.60;8.15;;;7.10;99.90;;;;;;5070007;28;20226;-69
2021/10/25 07:06:15;;;;;;;9.30;7.40;;;7.80;99.90;;;;;;5061851;28;20199;-67
2021/10/25 07:08:44;;;;;;;12.55;8.38;;;8.40;99.90;;;;;;5062927;28;20252;-68
2021/10/25 07:11:15;;;;;;;9.38;7.88;;;8.70;99.90;;;;;;5071224;28;20311;-68
2021/10/25 07:13:46;;;;;;;7.47;6.13;;;9.20;99.90;;;;;;5064369;28;20231;-67
2021/10/25 07:16:17;;;;;;;8.90;6.57;;;9.70;99.90;;;;;;5074138;28;20195;-67
2021/10/25 07:18:53;;;;;;;12.95;6.80;;;10.40;99.90;;;;;;5073804;28;20213;-66
2021/10/25 07:21:41;;;;;;;9.85;7.38;;;11.20;99.90;;;;;;5064247;28;20201;-67
2021/10/25 08:08:07;;;;;;;10.33;6.03;;;17.40;90.10;;;;;;5065122;28;20479;-69
2021/10/25 08:10:39;;;;;;;10.20;6.50;;;17.70;89.60;;;;;;5068831;28;20788;-70
2021/10/25 08:13:12;;;;;;;9.17;6.50;;;17.30;89.90;;;;;;5077624;28;20551;-71
2021/10/25 08:15:44;;;;;;;9.43;7.33;;;17.20;90.00;;;;;;5067798;28;20456;-71
2021/10/25 08:18:29;;;;;;;10.17;5.83;;;17.10;89.80;;;;;;5059985;28;20457;-70
2021/10/25 08:20:58;;;;;;;7.53;6.83;;;16.50;90.70;;;;;;5067625;28;20436;-70
2021/10/25 08:23:25;;;;;;;12.15;7.40;;;15.60;94.10;;;;;;5065814;28;20487;-71
2021/10/25 08:25:53;;;;;;;10.95;7.75;;;14.80;95.40;;;;;;5077144;28;20202;-69
2021/10/25 08:28:21;;;;;;;11.93;8.18;;;13.60;97.30;;;;;;5059390;28;20207;-70
2021/10/25 08:30:51;;;;;;;9.05;7.25;;;13.00;99.90;;;;;;5069075;28;20206;-69
2021/10/25 08:33:44;;;;;;;9.27;7.53;;;12.60;99.90;;;;;;5060975;28;20225;-69
2021/10/25 08:36:15;;;;;;;8.00;6.82;;;12.20;99.90;;;;;;5065804;28;20647;-71
2021/10/25 08:41:25;;;;;;;9.98;8.95;;;11.70;99.90;;;;;;4995822;28;20206;-70
2021/10/25 08:43:54;;;;;;;11.23;7.03;;;11.80;99.90;;;;;;5062333;28;20561;-70
2021/10/25 08:46:25;;;;;;;11.18;9.00;;;12.30;99.90;;;;;;5072908;28;20562;-70
2021/10/25 08:48:53;;;;;;;9.70;6.95;;;13.00;99.90;;;;;;5077624;28;20194;-71
2021/10/25 08:51:21;;;;;;;9.63;7.10;;;13.60;99.90;;;;;;5071925;28;20262;-70
2021/10/25 08:53:48;;;;;;;8.77;7.55;;;15.00;99.90;;;;;;5075161;28;20303;-70
2021/10/25 08:56:18;;;;;;;11.18;7.50;;;15.20;98.70;;;;;;5063572;28;20673;-71
2021/10/25 08:58:48;;;;;;;12.43;7.60;;;14.80;98.50;;;;;;5069005;28;20673;-71
2021/10/25 09:01:26;;;;;;;10.35;8.35;;;14.60;99.70;;;;;;5070897;28;20195;-70
2021/10/25 09:04:04;;;;;;;8.20;7.20;;;14.20;99.90;;;;;;5071639;28;20203;-69
2021/10/25 09:06:31;;;;;;;9.40;7.57;;;13.80;99.90;;;;;;5061594;28;20207;-71
2021/10/25 09:09:00;;;;;;;16.77;8.68;;;13.50;99.90;;;;;;5067459;28;20646;-70
2021/10/25 09:11:27;;;;;;;12.60;9.10;;;13.00;99.90;;;;;;5067593;28;20231;-70
2021/10/25 09:13:55;;;;;;;9.93;8.80;;;12.60;99.90;;;;;;5069437;28;20677;-70
2021/10/25 09:16:22;;;;;;;11.05;7.50;;;12.40;99.90;;;;;;5071237;28;20296;-70
2021/10/25 09:18:51;;;;;;;10.95;7.75;;;12.20;99.90;;;;;;5069708;28;20197;-69
2021/10/25 09:21:19;;;;;;;11.73;8.20;;;12.10;99.90;;;;;;5070733;28;20192;-70
2021/10/25 09:23:49;;;;;;;10.10;8.88;;;12.00;99.90;;;;;;5068791;28;20228;-69
2021/10/25 09:26:19;;;;;;;13.27;8.40;;;11.90;99.90;;;;;;5062945;28;20571;-69
2021/10/25 09:28:51;;;;;;;9.57;7.70;;;11.90;99.90;;;;;;5067633;28;20236;-70
2021/10/25 09:31:24;;;;;;;13.90;9.45;;;11.90;99.90;;;;;;5064381;28;20301;-70
2021/10/25 09:33:55;;;;;;;12.10;9.15;;;11.80;99.90;;;;;;5071214;28;20202;-69
2021/10/25 09:36:30;;;;;;;10.10;8.15;;;11.60;99.90;;;;;;5068921;28;20202;-72
2021/10/25 09:39:05;;;;;;;11.25;8.50;;;11.50;99.90;;;;;;5063676;28;20217;-71
2021/10/25 09:41:53;;;;;;;9.93;8.52;;;11.40;99.90;;;;;;5051268;28;21019;-71
2021/10/25 09:49:58;;;;;;;13.23;9.05;;;11.50;99.90;;;;;;5072720;28;20539;-71
2021/10/25 09:52:31;;;;;;;11.18;9.20;;;11.50;99.90;;;;;;5069284;28;20265;-70
2021/10/25 09:55:01;;;;;;;11.20;8.90;;;11.50;99.90;;;;;;5067146;28;20262;-71
2021/10/25 09:57:39;;;;;;;20.15;9.88;;;11.60;99.90;;;;;;5074391;28;20200;-69
2021/10/25 10:00:08;;;;;;;10.55;8.77;;;11.70;99.90;;;;;;5067095;28;20198;-68
2021/10/25 10:02:37;;;;;;;9.73;8.55;;;11.80;99.90;;;;;;5068822;28;20286;-71
2021/10/25 10:05:08;;;;;;;12.57;8.05;;;11.70;99.90;;;;;;5070063;28;20284;-72
2021/10/25 10:07:35;;;;;;;9.75;8.75;;;11.50;99.90;;;;;;5066514;28;20561;-69
2021/10/25 10:10:04;;;;;;;11.70;8.80;;;11.60;99.90;;;;;;5069020;28;20206;-71
2021/10/25 10:12:32;;;;;;;10.77;9.68;;;11.70;99.90;;;;;;5075455;28;20236;-72
2021/10/25 10:15:02;;;;;;;11.65;10.02;;;11.70;99.90;;;;;;5072657;28;20200;-71
2021/10/25 10:17:32;;;;;;;12.68;9.98;;;11.70;99.90;;;;;;5078816;28;20240;-71
2021/10/25 10:20:05;;;;;;;10.77;9.68;;;11.80;99.90;;;;;;5073964;28;20203;-70
2021/10/25 10:22:42;;;;;;;11.80;10.13;;;11.80;99.90;;;;;;5072585;28;20220;-68
2021/10/25 10:25:10;;;;;;;14.90;9.65;;;11.80;99.90;;;;;;5072196;28;20198;-71
2021/10/25 10:27:37;;;;;;;12.93;8.73;;;11.80;99.90;;;;;;5072430;28;20209;-71
2021/10/25 10:30:11;;;;;;;11.63;8.60;;;11.90;99.90;;;;;;5071558;28;20672;-69
2021/10/25 10:32:39;;;;;;;10.73;8.93;;;12.00;99.90;;;;;;5063813;28;20227;-70
2021/10/25 10:35:09;;;;;;;10.63;8.95;;;12.10;99.90;;;;;;5072910;28;20207;-71
2021/10/25 10:37:41;;;;;;;13.63;9.27;;;12.20;99.90;;;;;;5069950;28;20685;-69
2021/10/25 10:40:13;;;;;;;12.77;10.55;;;12.30;99.90;;;;;;5062547;28;20224;-73
2021/10/25 10:42:44;;;;;;;10.65;8.13;;;12.20;99.90;;;;;;5068271;28;20730;-68
2021/10/25 10:45:13;;;;;;;15.68;9.18;;;12.40;99.90;;;;;;5058983;28;20252;-72
2021/10/25 10:47:43;;;;;;;16.17;8.77;;;12.50;99.90;;;;;;5064983;28;20292;-68
2021/10/25 10:50:21;;;;;;;8.85;7.80;;;12.50;99.90;;;;;;5064959;28;20215;-71
2021/10/25 10:53:02;;;;;;;12.32;9.15;;;12.60;99.90;;;;;;5064428;28;20234;-71
2021/10/25 10:55:32;;;;;;;14.45;8.02;;;12.60;99.90;;;;;;5047069;28;20216;-70
2021/10/25 11:00:48;;;;;;;9.50;8.50;;;12.40;99.90;;;;;;5071221;28;20251;-71
2021/10/25 11:03:22;;;;;;;13.50;9.75;;;12.50;99.90;;;;;;5071366;28;20583;-71
2021/10/25 11:05:54;;;;;;;12.15;7.95;;;12.20;99.90;;;;;;5062782;28;20698;-71
2021/10/25 11:08:24;;;;;;;12.68;8.95;;;12.20;99.90;;;;;;5068956;28;20619;-71
2021/10/25 11:11:00;;;;;;;14.48;7.97;;;12.30;99.90;;;;;;5070767;28;20566;-72
2021/10/25 11:13:30;;;;;;;11.10;8.52;;;12.30;99.90;;;;;;5046902;28;20235;-70
2021/10/25 11:16:03;;;;;;;13.57;8.70;;;12.50;99.90;;;;;;5062649;28;20210;-71
2021/10/25 11:18:32;;;;;;;8.98;7.90;;;12.60;99.90;;;;;;5065374;28;20194;-70
2021/10/25 11:21:12;;;;;;;9.48;8.45;;;12.60;99.90;;;;;;5066641;28;20206;-70
2021/10/25 11:23:47;;;;;;;9.60;7.90;;;12.70;99.90;;;;;;5063954;28;20253;-69
2021/10/25 11:26:18;;;;;;;12.75;9.88;;;12.80;99.90;;;;;;5068720;28;20240;-70
2021/10/25 11:29:01;;;;;;;9.60;7.78;;;12.90;99.90;;;;;;5070430;28;20214;-71
2021/10/25 11:31:30;;;;;;;12.05;8.13;;;13.00;99.90;;;;;;5053923;28;20206;-69
2021/10/25 11:33:59;;;;;;;12.90;8.23;;;12.90;99.90;;;;;;5055544;28;20206;-71
2021/10/25 11:36:30;;;;;;;10.25;8.25;;;12.80;99.90;;;;;;5060087;28;20285;-70
2021/10/25 11:39:01;;;;;;;12.02;8.20;;;12.90;99.90;;;;;;5068889;28;20656;-70
2021/10/25 11:41:29;;;;;;;16.08;8.90;;;12.80;99.90;;;;;;5071612;28;20256;-73
2021/10/25 11:43:56;;;;;;;12.25;8.20;;;12.80;99.90;;;;;;5062787;28;20214;-73
2021/10/25 11:46:24;;;;;;;11.52;9.68;;;12.90;99.90;;;;;;5060048;28;20344;-70
2021/10/25 11:48:58;;;;;;;10.02;8.10;;;12.80;99.90;;;;;;5069123;28;20213;-70
2021/10/25 11:51:26;;;;;;;9.57;7.10;;;12.90;99.90;;;;;;5063286;28;20257;-71
2021/10/25 11:53:56;;;;;;;11.82;8.55;;;13.10;99.90;;;;;;5066653;28;20226;-71
2021/10/25 11:56:25;;;;;;;11.65;9.07;;;13.30;99.90;;;;;;5069387;28;20293;-71
2021/10/25 11:58:53;;;;;;;9.52;7.28;;;13.50;99.90;;;;;;5069684;28;20202;-73
2021/10/25 12:01:21;;;;;;;10.75;8.10;;;13.60;99.90;;;;;;5067195;28;20206;-67
2021/10/25 12:03:49;;;;;;;10.00;8.05;;;13.80;99.90;;;;;;5062345;28;20219;-70
2021/10/25 12:06:18;;;;;;;8.77;7.15;;;13.90;99.90;;;;;;5067053;28;20201;-72
2021/10/25 12:08:57;;;;;;;7.97;7.10;;;14.10;99.90;;;;;;5070046;28;20602;-68
2021/10/25 12:14:22;;;;;;;11.88;7.55;;;14.40;99.90;;;;;;5063490;28;20203;-70
2021/10/25 12:16:51;;;;;;;7.65;6.88;;;14.50;99.90;;;;;;5071986;28;20281;-72
2021/10/25 12:19:18;;;;;;;10.52;7.18;;;14.50;99.90;;;;;;5068706;28;20199;-69
2021/10/25 12:21:47;;;;;;;9.82;7.50;;;14.40;99.90;;;;;;5071746;28;20263;-69
2021/10/25 12:24:14;;;;;;;9.20;7.00;;;14.30;99.90;;;;;;5072863;28;20205;-70
2021/10/25 12:26:45;;;;;;;15.10;6.53;;;14.10;99.90;;;;;;5069770;28;20262;-70
2021/10/25 12:29:18;;;;;;;11.32;6.60;;;14.20;99.90;;;;;;5073415;28;20712;-71
2021/10/25 12:31:46;;;;;;;11.82;7.55;;;14.10;99.90;;;;;;5068899;28;20229;-72
2021/10/25 12:34:14;;;;;;;7.85;5.95;;;14.20;99.90;;;;;;5069639;28;20207;-72
2021/10/25 12:36:45;;;;;;;8.82;6.53;;;14.20;99.90;;;;;;5071825;28;20205;-71
2021/10/25 12:39:14;;;;;;;11.98;7.70;;;14.10;99.90;;;;;;5073544;28;20257;-72
2021/10/25 12:41:49;;;;;;;10.40;6.30;;;14.10;99.90;;;;;;5075053;28;20761;-69
2021/10/25 12:44:28;;;;;;;9.88;6.40;;;14.10;99.90;;;;;;5064891;28;20198;-73
2021/10/25 12:47:11;;;;;;;12.05;7.50;;;14.20;99.90;;;;;;5074622;28;20210;-72
2021/10/25 12:49:38;;;;;;;8.15;7.35;;;14.20;99.90;;;;;;5074229;28;20207;-70
2021/10/25 12:52:18;;;;;;;8.38;6.97;;;14.10;99.90;;;;;;5073424;28;20241;-74
2021/10/25 12:54:57;;;;;;;10.25;6.75;;;14.10;99.90;;;;;;5074655;28;20260;-72
2021/10/25 12:57:30;;;;;;;8.68;6.45;;;14.30;99.90;;;;;;5068806;28;20194;-73
2021/10/25 13:00:00;;;;;;;10.88;6.57;;;14.40;99.90;;;;;;5043576;28;20242;-72
2021/10/25 13:02:29;;;;;;;7.10;6.32;;;14.60;99.90;;;;;;5066504;28;20215;-70
2021/10/25 13:05:08;;;;;;;10.20;8.70;;;14.60;99.90;;;;;;5067768;28;20210;-68
2021/10/25 13:07:35;;;;;;;10.35;7.85;;;14.70;99.90;;;;;;5073673;28;20198;-69
2021/10/25 13:10:08;;;;;;;24.85;14.15;;;14.70;99.90;;;;;;5065472;28;20283;-67
2021/10/25 13:12:37;;;;;;;14.70;8.60;;;14.60;99.90;;;;;;5062841;28;20219;-68
2021/10/25 13:15:06;;;;;;;10.35;7.53;;;14.60;99.90;;;;;;5067414;28;20206;-70
2021/10/25 13:17:33;;;;;;;7.28;6.53;;;14.60;99.90;;;;;;5071789;28;20194;-69
2021/10/25 13:20:02;;;;;;;10.15;6.80;;;14.70;99.90;;;;;;5064660;28;20212;-69
2021/10/25 13:22:30;;;;;;;8.45;6.28;;;14.60;99.90;;;;;;5073765;28;20281;-70
2021/10/25 13:24:57;;;;;;;13.88;8.95;;;14.50;99.90;;;;;;5066574;28;20549;-69
2021/10/25 13:27:25;;;;;;;11.13;8.02;;;14.40;99.90;;;;;;5069555;28;20210;-71
2021/10/25 13:29:53;;;;;;;13.38;8.80;;;14.50;99.90;;;;;;5075334;28;20198;-69
2021/10/25 13:32:21;;;;;;;18.45;13.35;;;14.40;99.90;;;;;;5066706;28;20219;-68
2021/10/25 13:34:49;;;;;;;14.65;8.73;;;14.40;99.90;;;;;;5075612;28;20363;-68
2021/10/25 13:37:18;;;;;;;8.50;7.60;;;14.50;99.90;;;;;;5068313;28;20211;-69
2021/10/25 13:39:45;;;;;;;9.00;7.25;;;14.60;99.90;;;;;;5074402;28;20589;-70
2021/10/25 13:42:40;;;;;;;10.65;6.88;;;14.50;99.90;;;;;;5069322;28;20720;-71
2021/10/25 13:45:10;;;;;;;11.55;6.10;;;14.50;99.90;;;;;;5054489;28;20207;-69
2021/10/25 13:47:38;;;;;;;9.95;6.63;;;14.50;99.90;;;;;;5057410;28;20609;-70
2021/10/25 13:50:06;;;;;;;10.48;7.30;;;14.50;99.90;;;;;;5065598;28;20657;-70
2021/10/25 13:52:35;;;;;;;11.10;6.40;;;14.60;99.90;;;;;;5068828;28;20223;-68
2021/10/25 13:55:04;;;;;;;10.32;5.90;;;14.60;99.90;;;;;;5062047;28;20658;-71
2021/10/25 13:57:36;;;;;;;7.90;6.50;;;14.70;99.90;;;;;;5059651;28;20310;-70
2021/10/25 14:00:05;;;;;;;17.55;11.15;;;14.80;99.90;;;;;;5062278;28;20222;-70
2021/10/25 14:02:34;;;;;;;9.32;5.78;;;14.80;99.90;;;;;;5070904;28;20215;-69
2021/10/25 14:05:02;;;;;;;8.63;5.50;;;14.90;99.90;;;;;;5063192;28;20274;-68
2021/10/25 14:07:32;;;;;;;8.98;6.10;;;15.00;99.90;;;;;;5074360;28;20205;-68
2021/10/25 14:10:04;;;;;;;9.32;5.22;;;15.00;99.90;;;;;;5063435;28;20207;-70
2021/10/25 14:12:33;;;;;;;8.60;5.47;;;15.00;99.90;;;;;;5062403;28;20252;-69
2021/10/25 14:15:07;;;;;;;6.07;4.72;;;15.10;99.90;;;;;;5065975;28;20312;-70
2021/10/25 14:17:35;;;;;;;8.27;4.43;;;15.10;99.90;;;;;;5044934;28;20208;-69
2021/10/25 14:20:03;;;;;;;8.93;4.72;;;15.20;99.90;;;;;;5067525;28;20567;-70
2021/10/25 14:22:30;;;;;;;7.80;6.30;;;15.20;99.90;;;;;;5067754;28;20665;-72